sensor_id;sensor_type;location;lat;lon;timestamp;temperature;humidity
6520;DHT22;3293;51.690;5.982;2023-08-07T00:02:31;13.40;99.90
6520;DHT22;3293;51.690;5.982;2023-08-07T00:07:32;13.40;99.90
6520;DHT22;3293;51.690;5.982;2023-08-07T00:12:33;13.40;99.90
6520;DHT22;3293;51.690;5.982;2023-08-07T00:17:33;13.40;99.90
6520;DHT22;3293;51.690;5.982;2023-08-07T00:22:34;13.40;99.90
6520;DHT22;3293;51.690;5.982;2023-08-07T00:27:34;13.40;99.90
6520;DHT22;3293;51.690;5.982;2023-08-07T00:32:34;13.40;99.90
6520;DHT22;3293;51.690;5.982;2023-08-07T00:37:34;13.40;99.90
6520;DHT22;3293;51.690;5.982;2023-08-07T00:42:34;13.40;99.90
6520;DHT22;3293;51.690;5.982;2023-08-07T00:47:34;13.30;99.90
6520;DHT22;3293;51.690;5.982;2023-08-07T00:52:34;13.30;99.90
6520;DHT22;3293;51.690;5.982;2023-08-07T00:57:34;13.30;99.90
6520;DHT22;3293;51.690;5.982;2023-08-07T01:02:34;13.30;99.90
6520;DHT22;3293;51.690;5.982;2023-08-07T01:07:35;13.30;99.90
6520;DHT22;3293;51.690;5.982;2023-08-07T01:12:50;13.20;99.90
6520;DHT22;3293;51.690;5.982;2023-08-07T01:17:54;13.20;99.90
6520;DHT22;3293;51.690;5.982;2023-08-07T01:22:54;13.20;99.90
6520;DHT22;3293;51.690;5.982;2023-08-07T01:28:09;13.20;99.90
6520;DHT22;3293;51.690;5.982;2023-08-07T01:38:24;13.20;99.90
6520;DHT22;3293;51.690;5.982;2023-08-07T01:43:26;13.10;99.90
6520;DHT22;3293;51.690;5.982;2023-08-07T01:48:27;13.10;99.90
6520;DHT22;3293;51.690;5.982;2023-08-07T01:53:27;13.10;99.90
6520;DHT22;3293;51.690;5.982;2023-08-07T01:58:27;13.10;99.90
6520;DHT22;3293;51.690;5.982;2023-08-07T02:03:27;13.10;99.90
6520;DHT22;3293;51.690;5.982;2023-08-07T02:08:28;13.10;99.90
6520;DHT22;3293;51.690;5.982;2023-08-07T02:13:28;13.10;99.90
6520;DHT22;3293;51.690;5.982;2023-08-07T02:18:28;13.00;99.90
6520;DHT22;3293;51.690;5.982;2023-08-07T02:23:29;13.00;99.90
6520;DHT22;3293;51.690;5.982;2023-08-07T02:28:29;13.00;99.90
6520;DHT22;3293;51.690;5.982;2023-08-07T02:33:29;13.00;99.90
6520;DHT22;3293;51.690;5.982;2023-08-07T02:38:32;13.00;99.90
6520;DHT22;3293;51.690;5.982;2023-08-07T02:43:32;13.00;99.90
6520;DHT22;3293;51.690;5.982;2023-08-07T02:48:34;13.00;99.90
6520;DHT22;3293;51.690;5.982;2023-08-07T02:53:34;13.00;99.90
6520;DHT22;3293;51.690;5.982;2023-08-07T02:58:34;13.00;99.90
6520;DHT22;3293;51.690;5.982;2023-08-07T03:03:35;12.90;99.90
6520;DHT22;3293;51.690;5.982;2023-08-07T03:08:35;13.00;99.90
6520;DHT22;3293;51.690;5.982;2023-08-07T03:13:34;12.90;99.90
6520;DHT22;3293;51.690;5.982;2023-08-07T03:18:34;12.90;99.90
6520;DHT22;3293;51.690;5.982;2023-08-07T03:23:34;13.00;99.90
6520;DHT22;3293;51.690;5.982;2023-08-07T03:28:35;13.00;99.90
6520;DHT22;3293;51.690;5.982;2023-08-07T03:33:35;13.00;99.90
6520;DHT22;3293;51.690;5.982;2023-08-07T03:38:35;13.00;99.90
6520;DHT22;3293;51.690;5.982;2023-08-07T03:43:35;13.00;99.90
6520;DHT22;3293;51.690;5.982;2023-08-07T03:48:35;13.00;99.90
6520;DHT22;3293;51.690;5.982;2023-08-07T03:53:36;13.00;99.90
6520;DHT22;3293;51.690;5.982;2023-08-07T03:58:36;13.00;99.90
6520;DHT22;3293;51.690;5.982;2023-08-07T04:03:36;13.00;99.90
6520;DHT22;3293;51.690;5.982;2023-08-07T04:08:36;13.00;99.90
6520;DHT22;3293;51.690;5.982;2023-08-07T04:13:36;13.00;99.90
6520;DHT22;3293;51.690;5.982;2023-08-07T04:18:36;13.10;99.90
6520;DHT22;3293;51.690;5.982;2023-08-07T04:23:36;13.10;99.90
6520;DHT22;3293;51.690;5.982;2023-08-07T04:28:37;13.10;99.90
6520;DHT22;3293;51.690;5.982;2023-08-07T04:33:36;13.00;99.90
6520;DHT22;3293;51.690;5.982;2023-08-07T04:38:36;12.90;99.90
6520;DHT22;3293;51.690;5.982;2023-08-07T04:43:36;12.90;99.90
6520;DHT22;3293;51.690;5.982;2023-08-07T04:48:36;12.90;99.90
6520;DHT22;3293;51.690;5.982;2023-08-07T04:53:36;12.90;99.90
6520;DHT22;3293;51.690;5.982;2023-08-07T04:58:36;12.90;99.90
6520;DHT22;3293;51.690;5.982;2023-08-07T05:03:36;12.90;99.90
6520;DHT22;3293;51.690;5.982;2023-08-07T05:08:36;12.90;99.90
6520;DHT22;3293;51.690;5.982;2023-08-07T05:13:36;12.90;99.90
6520;DHT22;3293;51.690;5.982;2023-08-07T05:18:36;13.00;99.90
6520;DHT22;3293;51.690;5.982;2023-08-07T05:23:36;13.10;99.90
6520;DHT22;3293;51.690;5.982;2023-08-07T05:28:36;13.10;99.90
6520;DHT22;3293;51.690;5.982;2023-08-07T05:33:36;13.20;99.90
6520;DHT22;3293;51.690;5.982;2023-08-07T05:38:36;13.20;99.90
6520;DHT22;3293;51.690;5.982;2023-08-07T05:43:36;13.20;99.90
6520;DHT22;3293;51.690;5.982;2023-08-07T05:48:36;13.20;99.90
6520;DHT22;3293;51.690;5.982;2023-08-07T05:53:37;13.20;99.90
6520;DHT22;3293;51.690;5.982;2023-08-07T05:58:37;13.30;99.90
6520;DHT22;3293;51.690;5.982;2023-08-07T06:03:37;13.30;99.90
6520;DHT22;3293;51.690;5.982;2023-08-07T06:08:37;13.30;99.90
6520;DHT22;3293;51.690;5.982;2023-08-07T06:13:37;13.30;99.90
6520;DHT22;3293;51.690;5.982;2023-08-07T06:18:37;13.30;99.90
6520;DHT22;3293;51.690;5.982;2023-08-07T06:23:37;13.40;99.90
6520;DHT22;3293;51.690;5.982;2023-08-07T06:28:38;13.40;99.90
6520;DHT22;3293;51.690;5.982;2023-08-07T06:33:39;13.50;99.90
6520;DHT22;3293;51.690;5.982;2023-08-07T06:38:39;13.50;99.90
6520;DHT22;3293;51.690;5.982;2023-08-07T06:43:39;13.40;99.90
6520;DHT22;3293;51.690;5.982;2023-08-07T06:48:39;13.40;99.90
6520;DHT22;3293;51.690;5.982;2023-08-07T06:53:39;13.50;99.90
6520;DHT22;3293;51.690;5.982;2023-08-07T06:58:40;13.60;99.90
6520;DHT22;3293;51.690;5.982;2023-08-07T07:03:39;13.60;99.90
6520;DHT22;3293;51.690;5.982;2023-08-07T07:08:39;13.70;99.90
6520;DHT22;3293;51.690;5.982;2023-08-07T07:13:39;13.80;99.90
6520;DHT22;3293;51.690;5.982;2023-08-07T07:18:41;13.80;99.90
6520;DHT22;3293;51.690;5.982;2023-08-07T07:23:41;13.80;99.90
6520;DHT22;3293;51.690;5.982;2023-08-07T07:28:41;14.00;99.90
6520;DHT22;3293;51.690;5.982;2023-08-07T07:33:41;14.10;99.90
6520;DHT22;3293;51.690;5.982;2023-08-07T07:38:41;14.20;99.90
6520;DHT22;3293;51.690;5.982;2023-08-07T07:43:41;14.50;99.90
6520;DHT22;3293;51.690;5.982;2023-08-07T07:48:41;15.20;99.90
6520;DHT22;3293;51.690;5.982;2023-08-07T07:53:42;15.60;99.90
6520;DHT22;3293;51.690;5.982;2023-08-07T07:58:42;15.80;99.90
6520;DHT22;3293;51.690;5.982;2023-08-07T08:03:43;15.70;99.90
6520;DHT22;3293;51.690;5.982;2023-08-07T08:08:43;16.70;99.90
6520;DHT22;3293;51.690;5.982;2023-08-07T08:13:43;18.50;99.90
6520;DHT22;3293;51.690;5.982;2023-08-07T08:18:43;18.00;99.90
6520;DHT22;3293;51.690;5.982;2023-08-07T08:23:43;16.90;99.90
6520;DHT22;3293;51.690;5.982;2023-08-07T08:28:43;16.20;99.90
6520;DHT22;3293;51.690;5.982;2023-08-07T08:33:43;15.60;99.90
6520;DHT22;3293;51.690;5.982;2023-08-07T08:38:44;15.00;99.90
6520;DHT22;3293;51.690;5.982;2023-08-07T08:43:46;14.60;99.90
6520;DHT22;3293;51.690;5.982;2023-08-07T08:48:51;14.40;99.90
6520;DHT22;3293;51.690;5.982;2023-08-07T08:53:55;14.50;99.90
6520;DHT22;3293;51.690;5.982;2023-08-07T08:58:56;15.70;99.90
6520;DHT22;3293;51.690;5.982;2023-08-07T09:03:56;18.00;99.90
6520;DHT22;3293;51.690;5.982;2023-08-07T09:08:57;19.80;99.90
6520;DHT22;3293;51.690;5.982;2023-08-07T09:13:59;20.40;99.90
6520;DHT22;3293;51.690;5.982;2023-08-07T09:19:01;20.50;99.90
6520;DHT22;3293;51.690;5.982;2023-08-07T09:24:01;20.90;99.90
6520;DHT22;3293;51.690;5.982;2023-08-07T09:29:01;20.90;98.20
6520;DHT22;3293;51.690;5.982;2023-08-07T09:34:02;20.00;94.70
6520;DHT22;3293;51.690;5.982;2023-08-07T09:39:05;19.60;92.20
6520;DHT22;3293;51.690;5.982;2023-08-07T09:44:09;18.90;93.70
6520;DHT22;3293;51.690;5.982;2023-08-07T09:49:10;18.80;93.60
6520;DHT22;3293;51.690;5.982;2023-08-07T09:54:10;18.80;93.20
6520;DHT22;3293;51.690;5.982;2023-08-07T09:59:11;19.20;90.70
6520;DHT22;3293;51.690;5.982;2023-08-07T10:04:11;19.40;91.50
6520;DHT22;3293;51.690;5.982;2023-08-07T10:09:17;19.60;90.00
6520;DHT22;3293;51.690;5.982;2023-08-07T10:14:18;19.20;82.60
6520;DHT22;3293;51.690;5.982;2023-08-07T10:19:18;18.50;86.50
6520;DHT22;3293;51.690;5.982;2023-08-07T10:24:18;17.80;91.80
6520;DHT22;3293;51.690;5.982;2023-08-07T10:29:20;17.60;95.40
6520;DHT22;3293;51.690;5.982;2023-08-07T10:34:24;17.80;97.20
6520;DHT22;3293;51.690;5.982;2023-08-07T10:39:24;18.20;95.20
6520;DHT22;3293;51.690;5.982;2023-08-07T10:44:29;18.40;96.00
6520;DHT22;3293;51.690;5.982;2023-08-07T10:49:40;18.30;93.10
6520;DHT22;3293;51.690;5.982;2023-08-07T10:54:49;18.30;93.10
6520;DHT22;3293;51.690;5.982;2023-08-07T10:59:50;19.00;92.30
6520;DHT22;3293;51.690;5.982;2023-08-07T11:04:50;19.80;90.60
6520;DHT22;3293;51.690;5.982;2023-08-07T11:09:51;20.00;80.50
6520;DHT22;3293;51.690;5.982;2023-08-07T11:14:52;19.90;86.80
6520;DHT22;3293;51.690;5.982;2023-08-07T11:19:56;19.80;82.70
6520;DHT22;3293;51.690;5.982;2023-08-07T11:24:56;19.80;82.30
6520;DHT22;3293;51.690;5.982;2023-08-07T11:29:56;19.60;82.00
6520;DHT22;3293;51.690;5.982;2023-08-07T11:34:56;19.20;84.90
6520;DHT22;3293;51.690;5.982;2023-08-07T11:40:01;18.60;87.40
6520;DHT22;3293;51.690;5.982;2023-08-07T11:45:02;18.30;87.60
6520;DHT22;3293;51.690;5.982;2023-08-07T11:50:02;18.70;84.70
6520;DHT22;3293;51.690;5.982;2023-08-07T11:55:03;18.90;88.70
6520;DHT22;3293;51.690;5.982;2023-08-07T12:00:07;18.70;84.90
6520;DHT22;3293;51.690;5.982;2023-08-07T12:05:12;18.70;86.10
6520;DHT22;3293;51.690;5.982;2023-08-07T12:10:13;18.90;81.80
6520;DHT22;3293;51.690;5.982;2023-08-07T12:15:13;19.40;83.10
6520;DHT22;3293;51.690;5.982;2023-08-07T12:20:16;20.00;78.10
6520;DHT22;3293;51.690;5.982;2023-08-07T12:25:20;20.30;73.60
6520;DHT22;3293;51.690;5.982;2023-08-07T12:30:22;20.30;75.10
6520;DHT22;3293;51.690;5.982;2023-08-07T12:35:23;20.60;70.40
6520;DHT22;3293;51.690;5.982;2023-08-07T12:40:24;20.40;70.40
6520;DHT22;3293;51.690;5.982;2023-08-07T12:45:25;20.40;75.10
6520;DHT22;3293;51.690;5.982;2023-08-07T12:50:27;20.60;69.30
6520;DHT22;3293;51.690;5.982;2023-08-07T12:55:28;20.90;60.90
6520;DHT22;3293;51.690;5.982;2023-08-07T13:00:31;21.20;62.60
6520;DHT22;3293;51.690;5.982;2023-08-07T13:05:32;21.00;60.30
6520;DHT22;3293;51.690;5.982;2023-08-07T13:10:32;20.80;63.20
6520;DHT22;3293;51.690;5.982;2023-08-07T13:15:33;20.70;63.90
6520;DHT22;3293;51.690;5.982;2023-08-07T13:20:37;20.70;63.40
6520;DHT22;3293;51.690;5.982;2023-08-07T13:25:40;20.60;53.60
6520;DHT22;3293;51.690;5.982;2023-08-07T13:30:42;20.60;46.70
6520;DHT22;3293;51.690;5.982;2023-08-07T13:35:44;20.70;50.30
6520;DHT22;3293;51.690;5.982;2023-08-07T13:40:47;20.50;52.70
6520;DHT22;3293;51.690;5.982;2023-08-07T13:46:04;20.00;50.50
6520;DHT22;3293;51.690;5.982;2023-08-07T13:51:05;19.90;51.30
6520;DHT22;3293;51.690;5.982;2023-08-07T13:56:08;19.80;53.90
6520;DHT22;3293;51.690;5.982;2023-08-07T14:01:11;19.40;51.20
6520;DHT22;3293;51.690;5.982;2023-08-07T14:06:11;19.30;46.00
6520;DHT22;3293;51.690;5.982;2023-08-07T14:11:13;19.40;48.50
6520;DHT22;3293;51.690;5.982;2023-08-07T14:16:15;19.40;48.80
6520;DHT22;3293;51.690;5.982;2023-08-07T14:21:17;19.40;47.90
6520;DHT22;3293;51.690;5.982;2023-08-07T14:26:18;19.50;49.20
6520;DHT22;3293;51.690;5.982;2023-08-07T14:31:20;19.40;52.20
6520;DHT22;3293;51.690;5.982;2023-08-07T14:36:21;19.30;53.10
6520;DHT22;3293;51.690;5.982;2023-08-07T14:41:22;19.20;60.30
6520;DHT22;3293;51.690;5.982;2023-08-07T14:46:23;18.80;67.60
6520;DHT22;3293;51.690;5.982;2023-08-07T14:51:23;18.60;86.60
6520;DHT22;3293;51.690;5.982;2023-08-07T14:56:23;18.40;90.40
6520;DHT22;3293;51.690;5.982;2023-08-07T15:01:23;18.40;91.30
6520;DHT22;3293;51.690;5.982;2023-08-07T15:06:23;18.50;86.10
6520;DHT22;3293;51.690;5.982;2023-08-07T15:11:23;18.40;80.00
6520;DHT22;3293;51.690;5.982;2023-08-07T15:16:23;18.50;84.20
6520;DHT22;3293;51.690;5.982;2023-08-07T15:21:23;18.70;84.10
6520;DHT22;3293;51.690;5.982;2023-08-07T15:26:23;18.80;84.10
6520;DHT22;3293;51.690;5.982;2023-08-07T15:31:23;18.60;86.40
6520;DHT22;3293;51.690;5.982;2023-08-07T15:36:23;18.60;84.80
6520;DHT22;3293;51.690;5.982;2023-08-07T15:41:23;18.70;83.00
6520;DHT22;3293;51.690;5.982;2023-08-07T15:46:23;18.70;81.50
6520;DHT22;3293;51.690;5.982;2023-08-07T15:51:23;19.10;81.60
6520;DHT22;3293;51.690;5.982;2023-08-07T15:56:23;19.40;73.10
6520;DHT22;3293;51.690;5.982;2023-08-07T16:01:23;19.20;69.10
6520;DHT22;3293;51.690;5.982;2023-08-07T16:06:24;18.80;72.70
6520;DHT22;3293;51.690;5.982;2023-08-07T16:11:23;18.40;76.70
6520;DHT22;3293;51.690;5.982;2023-08-07T16:16:23;17.90;91.40
6520;DHT22;3293;51.690;5.982;2023-08-07T16:21:23;17.50;95.10
6520;DHT22;3293;51.690;5.982;2023-08-07T16:26:24;17.40;97.90
6520;DHT22;3293;51.690;5.982;2023-08-07T16:31:24;17.50;97.60
6520;DHT22;3293;51.690;5.982;2023-08-07T16:36:25;17.50;98.00
6520;DHT22;3293;51.690;5.982;2023-08-07T16:41:26;17.80;95.40
6520;DHT22;3293;51.690;5.982;2023-08-07T16:46:26;17.60;93.00
6520;DHT22;3293;51.690;5.982;2023-08-07T16:51:26;17.60;92.90
6520;DHT22;3293;51.690;5.982;2023-08-07T16:56:27;17.70;92.30
6520;DHT22;3293;51.690;5.982;2023-08-07T17:01:27;17.60;93.20
6520;DHT22;3293;51.690;5.982;2023-08-07T17:06:28;17.50;92.90
6520;DHT22;3293;51.690;5.982;2023-08-07T17:11:27;17.40;93.20
6520;DHT22;3293;51.690;5.982;2023-08-07T17:16:28;17.20;93.50
6520;DHT22;3293;51.690;5.982;2023-08-07T17:21:28;17.20;93.80
6520;DHT22;3293;51.690;5.982;2023-08-07T17:26:28;17.20;94.20
6520;DHT22;3293;51.690;5.982;2023-08-07T17:31:29;17.10;94.80
6520;DHT22;3293;51.690;5.982;2023-08-07T17:36:29;17.10;94.60
6520;DHT22;3293;51.690;5.982;2023-08-07T17:41:29;17.00;94.90
6520;DHT22;3293;51.690;5.982;2023-08-07T17:46:30;16.90;94.90
6520;DHT22;3293;51.690;5.982;2023-08-07T17:51:31;17.00;95.90
6520;DHT22;3293;51.690;5.982;2023-08-07T17:56:31;17.10;96.20
6520;DHT22;3293;51.690;5.982;2023-08-07T18:01:33;17.10;96.30
6520;DHT22;3293;51.690;5.982;2023-08-07T18:06:33;17.00;96.50
6520;DHT22;3293;51.690;5.982;2023-08-07T18:11:33;16.90;97.20
6520;DHT22;3293;51.690;5.982;2023-08-07T18:16:33;16.80;98.00
6520;DHT22;3293;51.690;5.982;2023-08-07T18:21:34;16.70;98.50
6520;DHT22;3293;51.690;5.982;2023-08-07T18:26:34;16.50;99.20
6520;DHT22;3293;51.690;5.982;2023-08-07T18:31:35;16.40;99.90
6520;DHT22;3293;51.690;5.982;2023-08-07T18:36:35;16.30;99.90
6520;DHT22;3293;51.690;5.982;2023-08-07T18:41:38;16.20;99.90
6520;DHT22;3293;51.690;5.982;2023-08-07T18:46:38;16.00;99.90
6520;DHT22;3293;51.690;5.982;2023-08-07T18:51:39;15.90;99.90
6520;DHT22;3293;51.690;5.982;2023-08-07T18:56:39;15.70;99.90
6520;DHT22;3293;51.690;5.982;2023-08-07T19:01:39;15.50;99.90
6520;DHT22;3293;51.690;5.982;2023-08-07T19:06:39;15.40;99.90
6520;DHT22;3293;51.690;5.982;2023-08-07T19:11:39;15.30;99.90
6520;DHT22;3293;51.690;5.982;2023-08-07T19:16:40;15.20;99.90
6520;DHT22;3293;51.690;5.982;2023-08-07T19:21:44;15.10;99.90
6520;DHT22;3293;51.690;5.982;2023-08-07T19:26:44;15.00;99.90
6520;DHT22;3293;51.690;5.982;2023-08-07T19:31:44;14.90;99.90
6520;DHT22;3293;51.690;5.982;2023-08-07T19:36:44;14.80;99.90
6520;DHT22;3293;51.690;5.982;2023-08-07T19:41:45;14.70;99.90
6520;DHT22;3293;51.690;5.982;2023-08-07T19:46:45;14.60;99.90
6520;DHT22;3293;51.690;5.982;2023-08-07T19:51:45;14.50;99.90
6520;DHT22;3293;51.690;5.982;2023-08-07T19:56:45;14.40;99.90
6520;DHT22;3293;51.690;5.982;2023-08-07T20:01:45;14.20;99.90
6520;DHT22;3293;51.690;5.982;2023-08-07T20:06:47;14.20;99.90
6520;DHT22;3293;51.690;5.982;2023-08-07T20:11:47;14.10;99.90
6520;DHT22;3293;51.690;5.982;2023-08-07T20:16:47;13.90;99.90
6520;DHT22;3293;51.690;5.982;2023-08-07T20:21:47;13.90;99.90
6520;DHT22;3293;51.690;5.982;2023-08-07T20:26:47;14.00;99.90
6520;DHT22;3293;51.690;5.982;2023-08-07T20:31:47;14.00;99.90
6520;DHT22;3293;51.690;5.982;2023-08-07T20:36:47;14.00;99.90
6520;DHT22;3293;51.690;5.982;2023-08-07T20:41:47;14.10;99.90
6520;DHT22;3293;51.690;5.982;2023-08-07T20:46:47;14.10;99.90
6520;DHT22;3293;51.690;5.982;2023-08-07T20:51:48;14.10;99.90
6520;DHT22;3293;51.690;5.982;2023-08-07T20:56:48;14.30;99.90
6520;DHT22;3293;51.690;5.982;2023-08-07T21:01:48;14.30;99.90
6520;DHT22;3293;51.690;5.982;2023-08-07T21:06:48;14.40;99.90
6520;DHT22;3293;51.690;5.982;2023-08-07T21:11:50;14.40;99.90
6520;DHT22;3293;51.690;5.982;2023-08-07T21:16:52;14.50;99.90
6520;DHT22;3293;51.690;5.982;2023-08-07T21:21:53;14.40;99.90
6520;DHT22;3293;51.690;5.982;2023-08-07T21:26:54;14.40;99.90
6520;DHT22;3293;51.690;5.982;2023-08-07T21:31:56;14.30;99.90
6520;DHT22;3293;51.690;5.982;2023-08-07T21:36:56;14.30;99.90
6520;DHT22;3293;51.690;5.982;2023-08-07T21:41:57;14.20;99.90
6520;DHT22;3293;51.690;5.982;2023-08-07T21:46:58;14.20;99.90
6520;DHT22;3293;51.690;5.982;2023-08-07T21:51:58;14.30;99.90
6520;DHT22;3293;51.690;5.982;2023-08-07T21:56:58;14.40;99.90
6520;DHT22;3293;51.690;5.982;2023-08-07T22:02:00;14.50;99.90
6520;DHT22;3293;51.690;5.982;2023-08-07T22:07:00;14.50;99.90
6520;DHT22;3293;51.690;5.982;2023-08-07T22:12:01;14.50;99.90
6520;DHT22;3293;51.690;5.982;2023-08-07T22:17:01;14.50;99.90
6520;DHT22;3293;51.690;5.982;2023-08-07T22:22:01;14.50;99.90
6520;DHT22;3293;51.690;5.982;2023-08-07T22:27:02;14.40;99.90
6520;DHT22;3293;51.690;5.982;2023-08-07T22:32:03;14.40;99.90
6520;DHT22;3293;51.690;5.982;2023-08-07T22:37:03;14.30;99.90
6520;DHT22;3293;51.690;5.982;2023-08-07T22:42:04;14.40;99.90
6520;DHT22;3293;51.690;5.982;2023-08-07T22:47:04;14.40;99.90
6520;DHT22;3293;51.690;5.982;2023-08-07T22:52:04;14.40;99.90
6520;DHT22;3293;51.690;5.982;2023-08-07T22:57:04;14.50;99.90
6520;DHT22;3293;51.690;5.982;2023-08-07T23:02:04;14.50;99.90
6520;DHT22;3293;51.690;5.982;2023-08-07T23:07:04;14.50;99.90
6520;DHT22;3293;51.690;5.982;2023-08-07T23:12:05;14.50;99.90
6520;DHT22;3293;51.690;5.982;2023-08-07T23:17:05;14.40;99.90
6520;DHT22;3293;51.690;5.982;2023-08-07T23:22:05;14.40;99.90
6520;DHT22;3293;51.690;5.982;2023-08-07T23:27:05;14.30;99.90
6520;DHT22;3293;51.690;5.982;2023-08-07T23:32:07;14.30;99.90
6520;DHT22;3293;51.690;5.982;2023-08-07T23:37:07;14.10;99.90
6520;DHT22;3293;51.690;5.982;2023-08-07T23:42:07;14.00;99.90
6520;DHT22;3293;51.690;5.982;2023-08-07T23:47:10;13.80;99.90
6520;DHT22;3293;51.690;5.982;2023-08-07T23:52:11;13.80;99.90
6520;DHT22;3293;51.690;5.982;2023-08-07T23:57:11;13.60;99.90
